createdAt,value
2022-08-22T00:00:36.472Z,100885.67
2022-08-22T00:03:15.427Z,100877.21
2022-08-22T00:03:16.334Z,100869.45
2022-08-22T00:03:24.053Z,100884.66
2022-08-22T00:06:03.418Z,100885.88
2022-08-22T00:08:39.538Z,100883.98
2022-08-22T00:11:34.990Z,100891.70
2022-08-22T00:14:13.462Z,100894.61
2022-08-22T00:17:17.256Z,100893.51
2022-08-22T00:19:51.662Z,100896.05
2022-08-22T00:22:56.635Z,100894.48
2022-08-22T00:25:40.323Z,100895.04
2022-08-22T00:28:16.401Z,100899.71
2022-08-22T00:30:51.314Z,100899.91
2022-08-22T00:33:34.715Z,100899.70
2022-08-22T00:36:31.964Z,100899.39
2022-08-22T00:39:25.426Z,100901.12
2022-08-22T00:41:58.179Z,100895.66
2022-08-22T00:44:40.604Z,100897.30
2022-08-22T00:47:20.615Z,100896.34
2022-08-22T00:49:58.336Z,100898.42
2022-08-22T00:52:35.672Z,100898.50
2022-08-22T00:55:35.010Z,100899.14
2022-08-22T00:58:15.049Z,100896.90
2022-08-22T01:00:59.963Z,100899.39
2022-08-22T01:03:55.717Z,100899.84
2022-08-22T01:06:48.995Z,100895.84
2022-08-22T01:09:24.769Z,100899.27
2022-08-22T01:12:00.641Z,100896.08
2022-08-22T01:14:42.594Z,100898.73
2022-08-22T01:17:27.868Z,100896.17
2022-08-22T01:20:42.487Z,100893.70
2022-08-22T01:23:19.875Z,100894.96
2022-08-22T01:26:25.717Z,100896.42
2022-08-22T01:29:33.414Z,100898.46
2022-08-22T01:32:27.983Z,100896.92
2022-08-22T01:35:03.827Z,100896.54
2022-08-22T01:38:13.404Z,100893.59
2022-08-22T01:41:18.684Z,100892.09
2022-08-22T01:44:16.935Z,100890.31
2022-08-22T01:46:52.578Z,100891.87
2022-08-22T01:49:34.516Z,100889.56
2022-08-22T01:52:06.706Z,100889.59
2022-08-22T01:55:14.980Z,100889.09
2022-08-22T01:57:56.233Z,100888.86
2022-08-22T02:00:35.215Z,100887.66
2022-08-22T02:03:23.034Z,100881.52
2022-08-22T02:06:00.556Z,100884.67
2022-08-22T02:08:38.336Z,100883.77
2022-08-22T02:11:37.978Z,100883.35
2022-08-22T02:14:33.740Z,100878.37
2022-08-22T02:17:22.410Z,100879.53
2022-08-22T02:20:02.148Z,100879.11
2022-08-22T02:22:32.001Z,100877.82
2022-08-22T02:25:20.489Z,100881.17
2022-08-22T02:28:16.400Z,100882.39
2022-08-22T02:30:54.440Z,100884.16
2022-08-22T02:33:46.300Z,100883.11
2022-08-22T02:36:32.299Z,100886.91
2022-08-22T02:39:08.640Z,100885.83
2022-08-22T02:41:59.991Z,100887.06
2022-08-22T02:44:39.244Z,100889.20
2022-08-22T02:47:12.454Z,100890.48
2022-08-22T02:49:48.637Z,100890.88
2022-08-22T02:52:27.038Z,100894.06
2022-08-22T02:55:02.394Z,100893.64
2022-08-22T02:57:54.175Z,100892.64
2022-08-22T03:00:32.749Z,100891.20
2022-08-22T03:02:59.966Z,100893.23
2022-08-22T03:05:26.831Z,100894.08
2022-08-22T03:08:04.998Z,100895.01
2022-08-22T03:10:43.735Z,100890.16
2022-08-22T03:13:18.031Z,100890.36
2022-08-22T03:16:16.592Z,100892.38
2022-08-22T03:18:55.599Z,100894.82
2022-08-22T03:21:35.442Z,100895.10
2022-08-22T03:24:12.551Z,100892.79
2022-08-22T03:27:04.720Z,100892.17
2022-08-22T03:29:37.243Z,100892.08
2022-08-22T03:32:22.805Z,100889.86
2022-08-22T03:34:59.472Z,100892.89
2022-08-22T03:37:35.942Z,100894.97
2022-08-22T03:40:21.093Z,100893.21
2022-08-22T03:43:03.321Z,100892.21
2022-08-22T03:45:57.499Z,100891.77
2022-08-22T03:49:02.488Z,100891.61
2022-08-22T03:51:47.992Z,100891.70
2022-08-22T03:54:15.412Z,100892.80
2022-08-22T03:57:06.587Z,100895.11
2022-08-22T03:59:44.339Z,100897.89
2022-08-22T04:02:50.729Z,100896.99
2022-08-22T04:05:30.125Z,100897.23
2022-08-22T04:08:26.903Z,100898.45
2022-08-22T04:11:12.443Z,100897.04
2022-08-22T04:14:08.767Z,100899.34
2022-08-22T04:16:41.860Z,100906.89
2022-08-22T04:19:49.151Z,100907.29
2022-08-22T04:22:26.193Z,100910.05
2022-08-22T04:25:08.023Z,100907.89
2022-08-22T04:27:49.712Z,100908.05
2022-08-22T04:30:16.565Z,100905.75
2022-08-22T04:32:56.950Z,100906.60
2022-08-22T04:35:34.924Z,100910.23
2022-08-22T04:38:04.588Z,100912.54
2022-08-22T04:40:34.832Z,100911.48
2022-08-22T04:43:24.665Z,100914.48
2022-08-22T04:46:14.966Z,100914.31
2022-08-22T04:48:57.836Z,100918.36
2022-08-22T04:51:39.038Z,100919.66
2022-08-22T04:54:25.412Z,100921.17
2022-08-22T04:57:07.707Z,100924.63
2022-08-22T04:59:35.867Z,100925.37
2022-08-22T05:02:08.914Z,100926.42
2022-08-22T05:04:41.196Z,100924.84
2022-08-22T05:07:14.833Z,100928.02
2022-08-22T05:09:52.409Z,100931.88
2022-08-22T05:12:30.683Z,100933.48
2022-08-22T05:15:27.352Z,100938.85
2022-08-22T05:17:58.467Z,100947.88
2022-08-22T05:20:28.801Z,100952.09
2022-08-22T05:23:05.881Z,100951.27
2022-08-22T05:25:38.949Z,100952.70
2022-08-22T05:28:18.852Z,100951.28
2022-08-22T05:30:48.721Z,100952.13
2022-08-22T05:33:28.401Z,100952.81
2022-08-22T05:36:03.794Z,100954.44
2022-08-22T05:38:40.707Z,100949.34
2022-08-22T05:41:17.061Z,100952.30
2022-08-22T05:43:46.104Z,100950.56
2022-08-22T05:46:21.470Z,100950.39
2022-08-22T05:49:00.301Z,100946.23
2022-08-22T05:52:13.734Z,100950.49
2022-08-22T05:55:06.613Z,100948.30
2022-08-22T05:57:40.236Z,100951.13
2022-08-22T06:00:15.172Z,100946.67
2022-08-22T06:03:21.244Z,100949.11
2022-08-22T06:05:55.290Z,100948.31
2022-08-22T06:08:26.275Z,100950.20
2022-08-22T06:10:56.681Z,100951.20
2022-08-22T06:13:35.918Z,100954.29
2022-08-22T06:16:59.910Z,100951.55
2022-08-22T06:19:27.132Z,100952.70
2022-08-22T06:21:55.844Z,100954.91
2022-08-22T06:24:27.972Z,100955.92
2022-08-22T06:27:02.328Z,100958.21
2022-08-22T06:29:48.373Z,100967.48
2022-08-22T06:32:58.563Z,100968.42
2022-08-22T06:35:29.083Z,100966.95
2022-08-22T06:37:59.842Z,100968.48
2022-08-22T06:40:28.953Z,100967.02
2022-08-22T06:42:57.802Z,100966.55
2022-08-22T06:45:32.874Z,100971.23
2022-08-22T06:48:07.875Z,100966.30
2022-08-22T06:50:41.375Z,100964.15
2022-08-22T06:53:17.554Z,100965.73
2022-08-22T06:55:48.972Z,100962.66
2022-08-22T06:58:34.329Z,100963.93
2022-08-22T07:01:26.235Z,100967.02
2022-08-22T07:03:58.350Z,100968.58
2022-08-22T07:06:38.309Z,100965.84
2022-08-22T07:09:07.046Z,100964.13
2022-08-22T07:11:40.357Z,100966.10
2022-08-22T07:14:13.634Z,100966.83
2022-08-22T07:16:52.120Z,100970.66
2022-08-22T07:19:29.480Z,100971.56
2022-08-22T07:21:57.999Z,100972.02
2022-08-22T07:24:29.810Z,100973.60
2022-08-22T07:27:28.325Z,100974.11
2022-08-22T07:30:13.009Z,100973.39
2022-08-22T07:32:50.053Z,100973.33
2022-08-22T07:35:39.747Z,100970.56
2022-08-22T07:38:21.250Z,100970.09
2022-08-22T07:41:10.596Z,100974.61
2022-08-22T07:43:41.485Z,100975.33
2022-08-22T07:46:45.757Z,100974.00
2022-08-22T07:49:19.940Z,100984.08
2022-08-22T07:51:52.099Z,100978.90
2022-08-22T07:54:27.049Z,100977.85
2022-08-22T07:57:00.863Z,100983.23
2022-08-22T07:59:30.797Z,100986.34
2022-08-22T08:02:04.368Z,100985.75
2022-08-22T08:04:39.507Z,100983.85
2022-08-22T08:07:10.501Z,100984.27
2022-08-22T08:09:44.554Z,100979.20
2022-08-22T08:12:14.167Z,100977.52
2022-08-22T08:14:44.373Z,100975.95
2022-08-22T08:17:25.545Z,100970.58
2022-08-22T08:19:55.614Z,100969.70
2022-08-22T08:22:27.039Z,100972.62
2022-08-22T08:24:57.389Z,100974.85
2022-08-22T08:27:50.505Z,100976.19
2022-08-22T08:30:24.558Z,100973.46
2022-08-22T08:33:24.454Z,100972.38
2022-08-22T08:36:01.942Z,100974.90
2022-08-22T08:38:48.649Z,100967.16
2022-08-22T08:41:44.382Z,100963.52
2022-08-22T08:44:26.702Z,100964.95
2022-08-22T08:47:11.373Z,100953.48
2022-08-22T08:50:07.330Z,100953.14
2022-08-22T08:52:58.604Z,100955.85
2022-08-22T08:55:28.705Z,100952.94
2022-08-22T08:58:32.939Z,100951.77
2022-08-22T09:01:21.168Z,100947.55
2022-08-22T09:03:55.202Z,100950.46
2022-08-22T09:07:03.909Z,100949.57
2022-08-22T09:09:42.770Z,100951.27
2022-08-22T09:12:26.480Z,100950.61
2022-08-22T09:15:02.523Z,100950.30
2022-08-22T09:17:39.137Z,100943.41
2022-08-22T09:20:50.214Z,100942.30
2022-08-22T09:23:31.969Z,100942.45
2022-08-22T09:26:58.306Z,100945.84
2022-08-22T09:29:54.691Z,100941.68
2022-08-22T09:32:50.357Z,100942.04
2022-08-22T09:35:41.953Z,100943.33
2022-08-22T09:38:28.056Z,100935.60
2022-08-22T09:41:35.952Z,100935.47
2022-08-22T09:44:24.635Z,100928.75
2022-08-22T09:47:13.656Z,100924.61
2022-08-22T09:49:51.717Z,100924.66
2022-08-22T09:52:33.019Z,100923.59
2022-08-22T09:55:16.017Z,100917.88
2022-08-22T09:58:11.424Z,100920.55
2022-08-22T10:00:41.196Z,100914.48
2022-08-22T10:03:18.483Z,100909.20
2022-08-22T10:05:54.907Z,100905.48
2022-08-22T10:08:40.649Z,100899.52
2022-08-22T10:11:38.744Z,100902.30
2022-08-22T10:14:23.617Z,100901.42
2022-08-22T10:17:22.546Z,100900.30
2022-08-22T10:20:27.750Z,100898.38
2022-08-22T10:23:13.079Z,100894.97
2022-08-22T10:25:43.190Z,100894.17
2022-08-22T10:28:33.209Z,100897.02
2022-08-22T10:31:02.811Z,100892.26
2022-08-22T10:33:52.946Z,100889.80
2022-08-22T10:37:01.286Z,100888.86
2022-08-22T10:39:38.497Z,100890.17
2022-08-22T10:43:01.577Z,100888.86
2022-08-22T10:45:40.591Z,100885.18
2022-08-22T10:48:35.982Z,100880.16
2022-08-22T10:51:46.296Z,100881.21
2022-08-22T10:54:19.915Z,100876.42
2022-08-22T10:56:53.155Z,100868.98
2022-08-22T10:59:36.295Z,100869.78
2022-08-22T11:02:24.471Z,100866.56
2022-08-22T11:05:10.965Z,100866.92
2022-08-22T11:07:55.164Z,100867.78
2022-08-22T11:10:38.461Z,100865.49
2022-08-22T11:13:56.059Z,100861.52
2022-08-22T11:16:42.206Z,100865.84
2022-08-22T11:19:22.741Z,100868.70
2022-08-22T11:22:07.717Z,100864.22
2022-08-22T11:25:04.832Z,100860.71
2022-08-22T11:27:48.026Z,100854.30
2022-08-22T11:30:19.003Z,100852.28
2022-08-22T11:33:10.612Z,100851.40
2022-08-22T11:35:50.729Z,100858.89
2022-08-22T11:38:36.215Z,100856.41
2022-08-22T11:41:24.665Z,100850.25
2022-08-22T11:44:01.392Z,100854.02
2022-08-22T11:46:35.301Z,100854.05
2022-08-22T11:49:25.652Z,100851.98
2022-08-22T11:51:57.575Z,100850.30
2022-08-22T11:54:51.778Z,100853.92
2022-08-22T11:57:39.788Z,100848.55
2022-08-22T12:00:29.787Z,100850.65
2022-08-22T12:02:56.531Z,100851.33
2022-08-22T12:05:32.525Z,100851.98
2022-08-22T12:08:12.868Z,100851.63
2022-08-22T12:11:35.392Z,100849.98
2022-08-22T12:14:08.164Z,100850.95
2022-08-22T12:16:47.366Z,100849.77
2022-08-22T12:19:42.017Z,100846.63
2022-08-22T12:22:49.931Z,100842.96
2022-08-22T12:25:29.190Z,100841.64
2022-08-22T12:28:26.467Z,100842.15
2022-08-22T12:31:12.913Z,100842.92
2022-08-22T12:33:53.499Z,100844.59
2022-08-22T12:36:23.954Z,100841.70
2022-08-22T12:39:24.297Z,100838.04
2022-08-22T12:42:04.075Z,100830.97
2022-08-22T12:44:59.366Z,100829.16
2022-08-22T12:48:00.944Z,100821.68
2022-08-22T12:50:52.211Z,100822.58
2022-08-22T12:53:42.327Z,100816.30
2022-08-22T12:56:59.950Z,100810.77
2022-08-22T12:59:32.378Z,100813.71
2022-08-22T13:02:03.118Z,100811.17
2022-08-22T13:04:35.549Z,100808.28
2022-08-22T13:07:32.852Z,100807.29
2022-08-22T13:10:08.225Z,100804.98
2022-08-22T13:12:44.965Z,100797.32
2022-08-22T13:15:28.641Z,100795.41
2022-08-22T13:18:13.260Z,100794.20
2022-08-22T13:20:50.023Z,100792.38
2022-08-22T13:23:26.610Z,100791.80
2022-08-22T13:26:16.324Z,100783.36
2022-08-22T13:29:39.687Z,100787.31
2022-08-22T13:32:05.037Z,100783.00
2022-08-22T13:34:40.684Z,100782.77
2022-08-22T13:37:24.642Z,100781.73
2022-08-22T13:39:59.027Z,100779.87
2022-08-22T13:42:30.898Z,100779.44
2022-08-22T13:45:02.536Z,100774.66
2022-08-22T13:47:31.727Z,100773.67
2022-08-22T13:50:07.664Z,100775.10
2022-08-22T13:52:52.573Z,100774.54
2022-08-22T13:55:35.516Z,100771.23
2022-08-22T13:58:22.097Z,100764.27
2022-08-22T14:01:10.429Z,100762.34
2022-08-22T14:03:39.828Z,100765.39
2022-08-22T14:06:52.075Z,100764.29
2022-08-22T14:09:31.478Z,100761.09
2022-08-22T14:12:20.983Z,100759.05
2022-08-22T14:14:59.683Z,100752.39
2022-08-22T14:17:44.897Z,100749.76
2022-08-22T14:20:32.207Z,100750.14
2022-08-22T14:23:09.944Z,100749.02
2022-08-22T14:25:40.104Z,100749.91
2022-08-22T14:28:11.431Z,100752.06
2022-08-22T14:31:00.614Z,100752.69
2022-08-22T14:33:39.904Z,100751.96
2022-08-22T14:36:40.129Z,100755.06
2022-08-22T14:39:20.893Z,100749.83
2022-08-22T14:41:59.401Z,100753.27
2022-08-22T14:44:44.064Z,100751.36
2022-08-22T14:48:29.562Z,100749.93
2022-08-22T14:50:58.899Z,100754.63
2022-08-22T14:53:30.103Z,100750.26
2022-08-22T14:56:18.126Z,100752.08
2022-08-22T14:58:59.870Z,100750.70
2022-08-22T15:01:32.792Z,100750.11
2022-08-22T15:04:07.843Z,100746.14
2022-08-22T15:06:37.778Z,100741.26
2022-08-22T15:09:22.102Z,100743.23
2022-08-22T15:11:49.483Z,100741.41
2022-08-22T15:14:38.038Z,100737.38
2022-08-22T15:17:10.050Z,100737.65
2022-08-22T15:19:44.455Z,100735.45
2022-08-22T15:22:27.483Z,100734.02
2022-08-22T15:25:15.508Z,100731.91
2022-08-22T15:28:00.502Z,100727.81
2022-08-22T15:30:32.475Z,100728.92
2022-08-22T15:33:14.219Z,100723.94
2022-08-22T15:35:43.370Z,100720.24
2022-08-22T15:38:36.434Z,100719.29
2022-08-22T15:41:23.049Z,100712.38
2022-08-22T15:44:01.293Z,100714.41
2022-08-22T15:46:38.015Z,100714.86
2022-08-22T15:49:10.624Z,100713.94
2022-08-22T15:52:00.686Z,100709.71
2022-08-22T15:54:34.451Z,100709.35
2022-08-22T15:57:10.495Z,100708.77
2022-08-22T15:59:53.725Z,100708.38
2022-08-22T16:02:35.362Z,100706.66
2022-08-22T16:05:03.895Z,100703.64
2022-08-22T16:07:41.390Z,100699.74
2022-08-22T16:10:32.110Z,100702.14
2022-08-22T16:13:10.647Z,100700.75
2022-08-22T16:15:49.359Z,100697.88
2022-08-22T16:18:33.636Z,100696.10
2022-08-22T16:21:22.268Z,100698.81
2022-08-22T16:23:56.290Z,100692.86
2022-08-22T16:26:31.888Z,100686.52
2022-08-22T16:29:13.661Z,100690.78
2022-08-22T16:31:44.646Z,100690.48
2022-08-22T16:34:18.145Z,100689.70
2022-08-22T16:37:03.147Z,100687.04
2022-08-22T16:40:14.431Z,100686.79
2022-08-22T16:42:46.595Z,100688.64
2022-08-22T16:45:27.686Z,100691.74
2022-08-22T16:47:58.247Z,100690.08
2022-08-22T16:50:40.820Z,100692.77
2022-08-22T16:53:29.765Z,100693.49
2022-08-22T16:56:26.337Z,100693.47
2022-08-22T16:59:24.172Z,100691.98
2022-08-22T17:02:06.979Z,100689.24
2022-08-22T17:04:49.584Z,100684.91
2022-08-22T17:07:49.877Z,100687.13
2022-08-22T17:10:35.222Z,100685.59
2022-08-22T17:13:36.875Z,100691.11
2022-08-22T17:16:34.007Z,100692.33
2022-08-22T17:19:25.319Z,100692.52
2022-08-22T17:21:59.991Z,100691.97
2022-08-22T17:24:45.948Z,100696.13
2022-08-22T17:27:26.583Z,100698.91
2022-08-22T17:30:11.035Z,100698.95
2022-08-22T17:33:08.368Z,100698.59
2022-08-22T17:36:04.394Z,100697.02
2022-08-22T17:38:47.134Z,100698.11
2022-08-22T17:41:40.319Z,100702.36
2022-08-22T17:44:09.908Z,100703.11
2022-08-22T17:46:46.391Z,100706.52
2022-08-22T17:49:28.581Z,100710.02
2022-08-22T17:52:09.380Z,100705.35
2022-08-22T17:54:51.297Z,100709.16
2022-08-22T17:57:48.858Z,100709.85
2022-08-22T18:00:23.875Z,100712.95
2022-08-22T18:03:01.198Z,100716.05
2022-08-22T18:05:39.955Z,100716.95
2022-08-22T18:11:45.975Z,100717.49
2022-08-22T18:14:21.791Z,100724.05
2022-08-22T18:16:52.285Z,100724.71
2022-08-22T18:19:54.465Z,100723.36
2022-08-22T18:22:48.731Z,100727.80
2022-08-22T18:25:21.651Z,100729.58
2022-08-22T18:28:22.075Z,100732.11
2022-08-22T18:30:56.048Z,100739.86
2022-08-22T18:33:40.094Z,100742.75
2022-08-22T18:36:17.301Z,100749.12
2022-08-22T18:39:09.890Z,100754.91
2022-08-22T18:42:18.317Z,100757.44
2022-08-22T18:44:45.220Z,100760.40
2022-08-22T18:47:26.049Z,100763.36
2022-08-22T18:49:55.423Z,100767.42
2022-08-22T18:52:25.345Z,100769.31
2022-08-22T18:55:21.233Z,100769.34
2022-08-22T18:58:29.881Z,100776.39
2022-08-22T19:01:04.999Z,100776.71
2022-08-22T19:04:05.280Z,100782.60
2022-08-22T19:06:56.783Z,100785.84
2022-08-22T19:10:04.981Z,100791.53
2022-08-22T19:12:53.346Z,100787.05
2022-08-22T19:15:29.087Z,100791.66
2022-08-22T19:18:23.087Z,100792.54
2022-08-22T19:21:39.589Z,100792.14
2022-08-22T19:24:31.734Z,100798.15
2022-08-22T19:27:11.366Z,100805.08
2022-08-22T19:29:38.302Z,100808.73
2022-08-22T19:32:12.701Z,100814.33
2022-08-22T19:34:46.914Z,100814.41
2022-08-22T19:37:31.104Z,100816.61
2022-08-22T19:40:40.594Z,100818.74
2022-08-22T19:43:32.913Z,100821.10
2022-08-22T19:46:03.891Z,100824.66
2022-08-22T19:48:44.592Z,100824.55
2022-08-22T19:51:20.966Z,100829.76
2022-08-22T19:54:17.763Z,100829.03
2022-08-22T19:57:09.997Z,100825.81
2022-08-22T19:59:50.762Z,100827.09
2022-08-22T20:02:35.078Z,100829.95
2022-08-22T20:05:17.352Z,100831.29
2022-08-22T20:08:00.012Z,100832.54
2022-08-22T20:10:57.523Z,100835.05
2022-08-22T20:13:27.934Z,100838.14
2022-08-22T20:16:19.488Z,100835.27
2022-08-22T20:19:05.117Z,100834.52
2022-08-22T20:21:43.651Z,100832.71
2022-08-22T20:24:21.937Z,100832.27
2022-08-22T20:27:12.943Z,100830.64
2022-08-22T20:29:45.106Z,100827.55
2022-08-22T20:32:18.001Z,100833.02
2022-08-22T20:34:45.679Z,100830.70
2022-08-22T20:37:32.490Z,100833.92
2022-08-22T20:40:55.705Z,100834.05
2022-08-22T20:43:29.360Z,100836.34
2022-08-22T20:46:23.962Z,100834.22
2022-08-22T20:48:54.103Z,100837.23
2022-08-22T20:51:25.216Z,100839.63
2022-08-22T20:53:58.985Z,100840.40
2022-08-22T20:56:52.678Z,100840.96
2022-08-22T20:59:39.960Z,100838.13
2022-08-22T21:02:24.255Z,100841.05
2022-08-22T21:05:05.403Z,100845.01
2022-08-22T21:07:32.168Z,100847.34
2022-08-22T21:10:40.557Z,100849.17
2022-08-22T21:13:24.544Z,100849.02
2022-08-22T21:16:22.547Z,100843.79
2022-08-22T21:18:52.024Z,100849.39
2022-08-22T21:21:21.327Z,100848.94
2022-08-22T21:23:59.917Z,100847.87
2022-08-22T21:26:32.354Z,100850.89
2022-08-22T21:29:07.086Z,100851.28
2022-08-22T21:31:41.475Z,100852.78
2022-08-22T21:34:14.713Z,100859.34
2022-08-22T21:36:41.815Z,100862.19
2022-08-22T21:39:20.425Z,100859.05
2022-08-22T21:42:08.101Z,100857.41
2022-08-22T21:44:38.199Z,100853.80
2022-08-22T21:47:31.507Z,100853.24
2022-08-22T21:50:31.671Z,100854.70
2022-08-22T21:53:13.930Z,100853.55
2022-08-22T21:55:43.082Z,100854.02
2022-08-22T21:58:34.985Z,100857.55
2022-08-22T22:01:30.309Z,100857.00
2022-08-22T22:03:58.952Z,100856.85
2022-08-22T22:06:26.554Z,100858.83
2022-08-22T22:08:53.537Z,100857.85
2022-08-22T22:11:20.259Z,100862.11
2022-08-22T22:13:48.113Z,100855.83
2022-08-22T22:16:27.051Z,100861.05
2022-08-22T22:19:00.766Z,100861.91
2022-08-22T22:21:28.304Z,100864.42
2022-08-22T22:23:56.420Z,100863.44
2022-08-22T22:26:26.149Z,100866.71
2022-08-22T22:28:53.289Z,100869.52
2022-08-22T22:31:20.766Z,100871.44
2022-08-22T22:33:47.806Z,100870.70
2022-08-22T22:36:25.700Z,100874.64
2022-08-22T22:38:53.835Z,100874.77
2022-08-22T22:41:25.535Z,100877.64
2022-08-22T22:43:56.041Z,100879.55
2022-08-22T22:46:23.635Z,100880.71
2022-08-22T22:48:50.871Z,100878.07
2022-08-22T22:51:18.028Z,100881.08
2022-08-22T22:53:45.725Z,100879.38
2022-08-22T22:56:21.502Z,100881.05
2022-08-22T22:58:49.570Z,100884.23
2022-08-22T23:01:21.357Z,100885.00
2022-08-22T23:03:52.263Z,100881.08
2022-08-22T23:06:21.626Z,100881.27
2022-08-22T23:08:48.562Z,100881.17
2022-08-22T23:11:22.463Z,100879.80
2022-08-22T23:13:50.180Z,100883.84
2022-08-22T23:16:23.981Z,100880.48
2022-08-22T23:18:51.272Z,100876.58
2022-08-22T23:21:27.889Z,100875.52
2022-08-22T23:23:57.255Z,100871.15
2022-08-22T23:26:24.417Z,100873.52
2022-08-22T23:28:51.419Z,100871.09
2022-08-22T23:31:52.025Z,100875.20
2022-08-22T23:34:23.099Z,100871.23
2022-08-22T23:36:52.220Z,100874.45
2022-08-22T23:39:21.005Z,100873.11
2022-08-22T23:41:47.933Z,100882.54
2022-08-22T23:44:17.012Z,100885.15
2022-08-22T23:46:44.494Z,100885.56
2022-08-22T23:49:11.852Z,100883.68
2022-08-22T23:51:39.518Z,100880.93
2022-08-22T23:54:06.963Z,100881.05
2022-08-22T23:56:42.640Z,100882.23
2022-08-22T23:59:13.698Z,100876.19
